sensor_id;sensor_type;location;lat;lon;timestamp;pressure;altitude;pressure_sealevel;temperature;humidity
75697;BME280;64312;44.738;20.612;2022-10-17T00:01:48;101640.56;;;10.20;72.57
75697;BME280;64312;44.738;20.612;2022-10-17T00:04:14;101637.19;;;10.18;72.63
75697;BME280;64312;44.738;20.612;2022-10-17T00:06:39;101629.97;;;10.18;73.00
75697;BME280;64312;44.738;20.612;2022-10-17T00:09:05;101635.66;;;10.15;73.04
75697;BME280;64312;44.738;20.612;2022-10-17T00:11:30;101632.44;;;10.12;73.28
75697;BME280;64312;44.738;20.612;2022-10-17T00:13:56;101637.50;;;10.33;73.14
75697;BME280;64312;44.738;20.612;2022-10-17T00:16:30;101647.38;;;10.50;73.03
75697;BME280;64312;44.738;20.612;2022-10-17T00:18:58;101640.66;;;10.54;72.69
75697;BME280;64312;44.738;20.612;2022-10-17T00:21:24;101630.50;;;10.48;73.16
75697;BME280;64312;44.738;20.612;2022-10-17T00:23:52;101629.84;;;10.46;72.86
75697;BME280;64312;44.738;20.612;2022-10-17T00:26:18;101629.09;;;10.36;72.81
75697;BME280;64312;44.738;20.612;2022-10-17T00:28:49;101637.44;;;10.24;73.40
75697;BME280;64312;44.738;20.612;2022-10-17T00:31:16;101628.19;;;10.09;73.03
75697;BME280;64312;44.738;20.612;2022-10-17T00:33:43;101634.38;;;10.01;72.81
75697;BME280;64312;44.738;20.612;2022-10-17T00:36:15;101650.13;;;9.96;73.12
75697;BME280;64312;44.738;20.612;2022-10-17T00:38:43;101645.06;;;9.93;72.85
75697;BME280;64312;44.738;20.612;2022-10-17T00:41:12;101640.38;;;9.95;73.14
75697;BME280;64312;44.738;20.612;2022-10-17T00:46:25;101631.06;;;10.08;72.58
75697;BME280;64312;44.738;20.612;2022-10-17T00:48:52;101647.38;;;10.06;72.73
75697;BME280;64312;44.738;20.612;2022-10-17T00:51:25;101645.13;;;10.01;72.94
75697;BME280;64312;44.738;20.612;2022-10-17T00:53:54;101640.38;;;9.95;72.02
75697;BME280;64312;44.738;20.612;2022-10-17T00:56:21;101641.53;;;9.93;72.74
75697;BME280;64312;44.738;20.612;2022-10-17T00:58:47;101643.69;;;9.89;72.40
75697;BME280;64312;44.738;20.612;2022-10-17T01:01:13;101637.47;;;9.89;73.11
75697;BME280;64312;44.738;20.612;2022-10-17T01:03:39;101633.09;;;9.88;72.60
75697;BME280;64312;44.738;20.612;2022-10-17T01:06:04;101636.44;;;9.90;72.85
75697;BME280;64312;44.738;20.612;2022-10-17T01:08:30;101633.94;;;9.88;72.74
75697;BME280;64312;44.738;20.612;2022-10-17T01:16:07;101630.09;;;9.73;72.90
75697;BME280;64312;44.738;20.612;2022-10-17T01:21:52;101621.72;;;9.58;73.00
75697;BME280;64312;44.738;20.612;2022-10-17T01:24:40;101631.47;;;9.59;72.80
75697;BME280;64312;44.738;20.612;2022-10-17T01:27:25;101628.09;;;9.57;72.29
75697;BME280;64312;44.738;20.612;2022-10-17T01:30:17;101634.41;;;9.48;72.46
75697;BME280;64312;44.738;20.612;2022-10-17T01:32:53;101634.53;;;9.29;72.26
75697;BME280;64312;44.738;20.612;2022-10-17T01:35:26;101638.88;;;9.12;72.40
75697;BME280;64312;44.738;20.612;2022-10-17T01:38:22;101638.38;;;8.99;72.50
75697;BME280;64312;44.738;20.612;2022-10-17T01:43:33;101644.44;;;9.01;73.54
75697;BME280;64312;44.738;20.612;2022-10-17T01:48:35;101645.63;;;8.88;72.97
75697;BME280;64312;44.738;20.612;2022-10-17T01:51:07;101634.63;;;8.82;73.81
75697;BME280;64312;44.738;20.612;2022-10-17T01:53:43;101644.66;;;8.89;73.89
75697;BME280;64312;44.738;20.612;2022-10-17T01:56:13;101648.28;;;8.98;74.10
75697;BME280;64312;44.738;20.612;2022-10-17T01:58:43;101647.00;;;9.02;73.11
75697;BME280;64312;44.738;20.612;2022-10-17T02:01:11;101642.59;;;9.01;73.31
75697;BME280;64312;44.738;20.612;2022-10-17T02:03:39;101642.59;;;9.01;72.84
75697;BME280;64312;44.738;20.612;2022-10-17T02:06:05;101636.69;;;8.98;73.57
75697;BME280;64312;44.738;20.612;2022-10-17T02:11:26;101647.69;;;9.04;73.89
75697;BME280;64312;44.738;20.612;2022-10-17T02:14:08;101646.91;;;9.12;73.80
75697;BME280;64312;44.738;20.612;2022-10-17T02:19:43;101656.50;;;9.14;73.80
75697;BME280;64312;44.738;20.612;2022-10-17T02:22:21;101655.66;;;9.14;73.24
75697;BME280;64312;44.738;20.612;2022-10-17T02:30:29;101660.75;;;9.17;73.32
75697;BME280;64312;44.738;20.612;2022-10-17T02:33:01;101657.38;;;9.15;73.39
75697;BME280;64312;44.738;20.612;2022-10-17T02:35:33;101666.56;;;9.12;72.83
75697;BME280;64312;44.738;20.612;2022-10-17T02:38:00;101666.16;;;9.07;73.05
75697;BME280;64312;44.738;20.612;2022-10-17T02:40:29;101667.91;;;8.99;72.85
75697;BME280;64312;44.738;20.612;2022-10-17T02:42:58;101668.25;;;8.86;73.15
75697;BME280;64312;44.738;20.612;2022-10-17T02:45:25;101660.94;;;8.78;73.41
75697;BME280;64312;44.738;20.612;2022-10-17T02:48:01;101671.63;;;8.88;72.61
75697;BME280;64312;44.738;20.612;2022-10-17T02:50:45;101665.66;;;8.94;73.49
75697;BME280;64312;44.738;20.612;2022-10-17T02:53:27;101669.19;;;8.94;73.52
75697;BME280;64312;44.738;20.612;2022-10-17T02:55:58;101675.41;;;8.95;73.11
75697;BME280;64312;44.738;20.612;2022-10-17T02:58:30;101670.50;;;8.90;73.29
75697;BME280;64312;44.738;20.612;2022-10-17T03:00:57;101673.94;;;8.83;72.53
75697;BME280;64312;44.738;20.612;2022-10-17T03:03:26;101674.53;;;8.77;72.90
75697;BME280;64312;44.738;20.612;2022-10-17T03:05:52;101680.00;;;8.75;72.50
75697;BME280;64312;44.738;20.612;2022-10-17T03:08:22;101681.16;;;8.73;72.49
75697;BME280;64312;44.738;20.612;2022-10-17T03:10:48;101694.59;;;8.73;73.45
75697;BME280;64312;44.738;20.612;2022-10-17T03:13:15;101685.00;;;8.70;73.48
75697;BME280;64312;44.738;20.612;2022-10-17T03:15:41;101694.31;;;8.66;73.34
75697;BME280;64312;44.738;20.612;2022-10-17T03:18:07;101683.88;;;8.63;73.82
75697;BME280;64312;44.738;20.612;2022-10-17T03:20:32;101683.44;;;8.67;74.46
75697;BME280;64312;44.738;20.612;2022-10-17T03:22:58;101683.25;;;8.79;74.14
75697;BME280;64312;44.738;20.612;2022-10-17T03:25:23;101690.56;;;8.86;74.13
75697;BME280;64312;44.738;20.612;2022-10-17T03:27:50;101690.16;;;8.91;74.09
75697;BME280;64312;44.738;20.612;2022-10-17T03:30:17;101685.63;;;8.91;73.96
75697;BME280;64312;44.738;20.612;2022-10-17T03:32:43;101691.16;;;8.90;73.92
75697;BME280;64312;44.738;20.612;2022-10-17T03:35:08;101695.94;;;8.86;73.87
75697;BME280;64312;44.738;20.612;2022-10-17T03:37:33;101695.00;;;8.78;73.35
75697;BME280;64312;44.738;20.612;2022-10-17T03:39:59;101697.56;;;8.70;73.85
75697;BME280;64312;44.738;20.612;2022-10-17T03:42:24;101697.84;;;8.66;73.90
75697;BME280;64312;44.738;20.612;2022-10-17T03:44:50;101694.75;;;8.61;73.62
75697;BME280;64312;44.738;20.612;2022-10-17T03:47:16;101695.91;;;8.59;73.48
75697;BME280;64312;44.738;20.612;2022-10-17T03:49:42;101703.97;;;8.59;73.49
75697;BME280;64312;44.738;20.612;2022-10-17T03:52:11;101696.06;;;8.57;73.92
75697;BME280;64312;44.738;20.612;2022-10-17T03:54:37;101698.59;;;8.59;74.18
75697;BME280;64312;44.738;20.612;2022-10-17T03:57:03;101706.34;;;8.62;73.48
75697;BME280;64312;44.738;20.612;2022-10-17T03:59:29;101704.38;;;8.64;73.83
75697;BME280;64312;44.738;20.612;2022-10-17T04:02:01;101705.06;;;8.66;73.59
75697;BME280;64312;44.738;20.612;2022-10-17T04:04:27;101702.38;;;8.66;73.52
75697;BME280;64312;44.738;20.612;2022-10-17T04:06:52;101704.38;;;8.64;73.93
75697;BME280;64312;44.738;20.612;2022-10-17T04:09:18;101715.09;;;8.64;73.68
75697;BME280;64312;44.738;20.612;2022-10-17T04:11:54;101703.66;;;8.62;73.24
75697;BME280;64312;44.738;20.612;2022-10-17T04:14:21;101711.00;;;8.60;73.09
75697;BME280;64312;44.738;20.612;2022-10-17T04:16:46;101715.69;;;8.58;73.63
75697;BME280;64312;44.738;20.612;2022-10-17T04:19:16;101713.69;;;8.60;74.06
75697;BME280;64312;44.738;20.612;2022-10-17T04:21:45;101720.06;;;8.59;73.70
75697;BME280;64312;44.738;20.612;2022-10-17T04:24:12;101719.22;;;8.58;73.56
75697;BME280;64312;44.738;20.612;2022-10-17T04:26:57;101711.59;;;8.54;73.75
75697;BME280;64312;44.738;20.612;2022-10-17T04:29:27;101717.81;;;8.54;73.54
75697;BME280;64312;44.738;20.612;2022-10-17T04:32:02;101719.09;;;8.50;73.36
75697;BME280;64312;44.738;20.612;2022-10-17T04:34:37;101721.22;;;8.47;73.41
75697;BME280;64312;44.738;20.612;2022-10-17T04:37:03;101724.88;;;8.46;74.26
75697;BME280;64312;44.738;20.612;2022-10-17T04:39:29;101725.16;;;8.43;74.18
75697;BME280;64312;44.738;20.612;2022-10-17T04:41:56;101736.19;;;8.39;73.69
75697;BME280;64312;44.738;20.612;2022-10-17T04:44:22;101721.22;;;8.37;73.82
75697;BME280;64312;44.738;20.612;2022-10-17T04:46:50;101722.94;;;8.38;73.78
75697;BME280;64312;44.738;20.612;2022-10-17T04:49:16;101728.28;;;8.38;73.90
75697;BME280;64312;44.738;20.612;2022-10-17T04:51:44;101735.19;;;8.40;74.06
75697;BME280;64312;44.738;20.612;2022-10-17T04:54:17;101747.34;;;8.45;73.89
75697;BME280;64312;44.738;20.612;2022-10-17T04:56:46;101745.50;;;8.45;73.64
75697;BME280;64312;44.738;20.612;2022-10-17T04:59:13;101747.34;;;8.45;73.46
75697;BME280;64312;44.738;20.612;2022-10-17T05:01:40;101753.84;;;8.42;73.58
75697;BME280;64312;44.738;20.612;2022-10-17T05:04:06;101751.00;;;8.34;73.61
75697;BME280;64312;44.738;20.612;2022-10-17T05:06:32;101755.66;;;8.32;73.82
75697;BME280;64312;44.738;20.612;2022-10-17T05:09:27;101754.53;;;8.34;73.19
75697;BME280;64312;44.738;20.612;2022-10-17T05:11:53;101756.81;;;8.39;74.03
75697;BME280;64312;44.738;20.612;2022-10-17T05:14:18;101752.72;;;8.45;74.25
75697;BME280;64312;44.738;20.612;2022-10-17T05:16:44;101763.16;;;8.48;74.11
75697;BME280;64312;44.738;20.612;2022-10-17T05:19:10;101768.38;;;8.49;73.47
75697;BME280;64312;44.738;20.612;2022-10-17T05:21:42;101773.63;;;8.51;73.16
75697;BME280;64312;44.738;20.612;2022-10-17T05:24:10;101774.16;;;8.54;73.30
75697;BME280;64312;44.738;20.612;2022-10-17T05:26:37;101768.38;;;8.59;73.85
75697;BME280;64312;44.738;20.612;2022-10-17T05:29:04;101771.59;;;8.62;73.74
75697;BME280;64312;44.738;20.612;2022-10-17T05:31:33;101769.34;;;8.67;73.24
75697;BME280;64312;44.738;20.612;2022-10-17T05:34:00;101767.06;;;8.73;73.88
75697;BME280;64312;44.738;20.612;2022-10-17T05:36:28;101778.81;;;8.72;73.30
75697;BME280;64312;44.738;20.612;2022-10-17T05:38:54;101776.56;;;8.77;74.18
75697;BME280;64312;44.738;20.612;2022-10-17T05:41:20;101784.44;;;8.78;73.58
75697;BME280;64312;44.738;20.612;2022-10-17T05:43:46;101783.31;;;8.81;73.51
75697;BME280;64312;44.738;20.612;2022-10-17T05:46:19;101785.88;;;8.82;73.49
75697;BME280;64312;44.738;20.612;2022-10-17T05:48:45;101789.09;;;8.86;73.86
75697;BME280;64312;44.738;20.612;2022-10-17T05:51:11;101785.72;;;8.84;73.59
75697;BME280;64312;44.738;20.612;2022-10-17T05:53:39;101791.78;;;8.86;73.66
75697;BME280;64312;44.738;20.612;2022-10-17T05:56:11;101791.50;;;8.89;74.47
75697;BME280;64312;44.738;20.612;2022-10-17T05:58:42;101804.63;;;8.92;72.99
75697;BME280;64312;44.738;20.612;2022-10-17T06:01:15;101791.78;;;8.95;73.70
75697;BME280;64312;44.738;20.612;2022-10-17T06:03:41;101790.47;;;9.00;73.83
75697;BME280;64312;44.738;20.612;2022-10-17T06:06:09;101800.78;;;9.04;73.64
75697;BME280;64312;44.738;20.612;2022-10-17T06:08:39;101794.72;;;9.02;73.22
75697;BME280;64312;44.738;20.612;2022-10-17T06:11:07;101808.16;;;9.02;73.96
75697;BME280;64312;44.738;20.612;2022-10-17T06:13:33;101815.50;;;9.00;73.65
75697;BME280;64312;44.738;20.612;2022-10-17T06:16:01;101820.88;;;9.00;73.42
75697;BME280;64312;44.738;20.612;2022-10-17T06:18:27;101829.66;;;9.02;72.95
75697;BME280;64312;44.738;20.612;2022-10-17T06:20:53;101825.97;;;9.03;73.19
75697;BME280;64312;44.738;20.612;2022-10-17T06:23:19;101828.75;;;9.11;72.83
75697;BME280;64312;44.738;20.612;2022-10-17T06:26:00;101824.91;;;9.23;73.56
75697;BME280;64312;44.738;20.612;2022-10-17T06:28:27;101822.06;;;9.25;74.23
75697;BME280;64312;44.738;20.612;2022-10-17T06:30:53;101830.25;;;9.33;73.60
75697;BME280;64312;44.738;20.612;2022-10-17T06:33:19;101823.16;;;9.42;73.93
75697;BME280;64312;44.738;20.612;2022-10-17T06:35:53;101824.94;;;9.51;73.84
75697;BME280;64312;44.738;20.612;2022-10-17T06:38:19;101830.81;;;9.64;74.04
75697;BME280;64312;44.738;20.612;2022-10-17T06:40:45;101834.56;;;9.81;74.45
75697;BME280;64312;44.738;20.612;2022-10-17T06:43:11;101832.38;;;9.94;74.25
75697;BME280;64312;44.738;20.612;2022-10-17T06:45:54;101839.53;;;10.03;74.45
75697;BME280;64312;44.738;20.612;2022-10-17T06:48:30;101837.06;;;10.10;74.18
75697;BME280;64312;44.738;20.612;2022-10-17T06:51:16;101839.31;;;10.15;74.55
75697;BME280;64312;44.738;20.612;2022-10-17T06:53:49;101843.94;;;10.22;74.01
75697;BME280;64312;44.738;20.612;2022-10-17T06:56:47;101849.13;;;10.34;73.88
75697;BME280;64312;44.738;20.612;2022-10-17T06:59:39;101852.75;;;10.42;74.05
75697;BME280;64312;44.738;20.612;2022-10-17T07:02:13;101862.28;;;10.54;73.77
75697;BME280;64312;44.738;20.612;2022-10-17T07:04:38;101860.38;;;10.65;73.82
75697;BME280;64312;44.738;20.612;2022-10-17T07:07:04;101859.16;;;10.77;73.74
75697;BME280;64312;44.738;20.612;2022-10-17T07:09:32;101862.44;;;10.89;73.29
75697;BME280;64312;44.738;20.612;2022-10-17T07:11:58;101867.44;;;11.01;73.31
75697;BME280;64312;44.738;20.612;2022-10-17T07:14:25;101866.69;;;11.17;73.61
75697;BME280;64312;44.738;20.612;2022-10-17T07:16:59;101864.41;;;11.30;73.33
75697;BME280;64312;44.738;20.612;2022-10-17T07:19:27;101863.81;;;11.45;72.81
75697;BME280;64312;44.738;20.612;2022-10-17T07:21:53;101866.09;;;11.57;72.63
75697;BME280;64312;44.738;20.612;2022-10-17T07:24:19;101867.31;;;11.71;72.62
75697;BME280;64312;44.738;20.612;2022-10-17T07:26:50;101864.38;;;11.82;72.16
75697;BME280;64312;44.738;20.612;2022-10-17T07:29:16;101865.78;;;11.95;72.04
75697;BME280;64312;44.738;20.612;2022-10-17T07:31:46;101864.31;;;12.08;71.54
75697;BME280;64312;44.738;20.612;2022-10-17T07:34:13;101867.72;;;12.18;70.96
75697;BME280;64312;44.738;20.612;2022-10-17T07:36:41;101859.28;;;12.30;70.38
75697;BME280;64312;44.738;20.612;2022-10-17T07:39:07;101859.00;;;12.41;70.26
75697;BME280;64312;44.738;20.612;2022-10-17T07:41:35;101860.19;;;12.55;69.67
75697;BME280;64312;44.738;20.612;2022-10-17T07:44:02;101864.78;;;12.70;69.69
75697;BME280;64312;44.738;20.612;2022-10-17T07:46:33;101862.59;;;12.82;68.86
75697;BME280;64312;44.738;20.612;2022-10-17T07:48:58;101861.22;;;12.94;68.37
75697;BME280;64312;44.738;20.612;2022-10-17T07:51:24;101862.72;;;13.05;67.79
75697;BME280;64312;44.738;20.612;2022-10-17T07:53:50;101863.59;;;13.14;67.35
75697;BME280;64312;44.738;20.612;2022-10-17T07:56:15;101859.88;;;13.23;66.53
75697;BME280;64312;44.738;20.612;2022-10-17T07:58:41;101861.53;;;13.32;66.19
75697;BME280;64312;44.738;20.612;2022-10-17T08:01:08;101851.56;;;13.41;66.01
75697;BME280;64312;44.738;20.612;2022-10-17T08:03:40;101858.97;;;13.55;65.31
75697;BME280;64312;44.738;20.612;2022-10-17T08:06:05;101849.78;;;13.64;65.00
75697;BME280;64312;44.738;20.612;2022-10-17T08:08:31;101846.22;;;13.72;64.76
75697;BME280;64312;44.738;20.612;2022-10-17T08:11:08;101856.13;;;13.88;65.34
75697;BME280;64312;44.738;20.612;2022-10-17T08:13:35;101851.50;;;13.96;65.45
75697;BME280;64312;44.738;20.612;2022-10-17T08:16:04;101851.63;;;14.11;65.42
75697;BME280;64312;44.738;20.612;2022-10-17T08:18:31;101861.03;;;14.23;65.21
75697;BME280;64312;44.738;20.612;2022-10-17T08:21:01;101853.88;;;14.30;64.47
75697;BME280;64312;44.738;20.612;2022-10-17T08:23:28;101857.88;;;14.43;63.90
75697;BME280;64312;44.738;20.612;2022-10-17T08:25:54;101852.59;;;14.49;62.55
75697;BME280;64312;44.738;20.612;2022-10-17T08:28:19;101854.22;;;14.58;61.87
75697;BME280;64312;44.738;20.612;2022-10-17T08:30:45;101863.97;;;14.68;61.28
75697;BME280;64312;44.738;20.612;2022-10-17T08:33:10;101863.06;;;14.75;61.69
75697;BME280;64312;44.738;20.612;2022-10-17T08:35:36;101867.41;;;14.84;61.13
75697;BME280;64312;44.738;20.612;2022-10-17T08:38:02;101864.31;;;14.87;60.65
75697;BME280;64312;44.738;20.612;2022-10-17T08:40:29;101866.41;;;15.00;60.09
75697;BME280;64312;44.738;20.612;2022-10-17T08:45:55;101875.44;;;15.15;58.24
75697;BME280;64312;44.738;20.612;2022-10-17T08:48:26;101876.38;;;15.23;58.23
75697;BME280;64312;44.738;20.612;2022-10-17T08:51:20;101874.81;;;15.28;57.81
75697;BME280;64312;44.738;20.612;2022-10-17T08:53:54;101870.97;;;15.37;57.55
75697;BME280;64312;44.738;20.612;2022-10-17T08:56:37;101870.03;;;15.45;57.23
75697;BME280;64312;44.738;20.612;2022-10-17T08:59:10;101873.72;;;15.52;56.89
75697;BME280;64312;44.738;20.612;2022-10-17T09:01:53;101870.91;;;15.60;56.60
75697;BME280;64312;44.738;20.612;2022-10-17T09:08:08;101868.41;;;15.74;56.26
75697;BME280;64312;44.738;20.612;2022-10-17T09:18:35;101881.28;;;16.01;55.17
75697;BME280;64312;44.738;20.612;2022-10-17T09:21:16;101880.72;;;16.06;54.64
75697;BME280;64312;44.738;20.612;2022-10-17T09:23:56;101880.81;;;16.12;54.75
75697;BME280;64312;44.738;20.612;2022-10-17T09:26:25;101875.66;;;16.17;54.33
75697;BME280;64312;44.738;20.612;2022-10-17T09:28:54;101882.00;;;16.24;54.33
75697;BME280;64312;44.738;20.612;2022-10-17T09:33:54;101887.19;;;16.41;53.80
75697;BME280;64312;44.738;20.612;2022-10-17T09:36:38;101872.41;;;16.43;53.48
75697;BME280;64312;44.738;20.612;2022-10-17T09:39:11;101877.69;;;16.51;53.25
75697;BME280;64312;44.738;20.612;2022-10-17T09:41:41;101883.84;;;16.60;53.07
75697;BME280;64312;44.738;20.612;2022-10-17T09:49:17;101881.97;;;16.75;52.95
75697;BME280;64312;44.738;20.612;2022-10-17T09:51:44;101884.06;;;16.80;52.60
75697;BME280;64312;44.738;20.612;2022-10-17T09:54:53;101884.34;;;16.85;52.45
75697;BME280;64312;44.738;20.612;2022-10-17T09:57:12;101887.13;;;16.92;51.97
75697;BME280;64312;44.738;20.612;2022-10-17T09:59:41;101889.25;;;16.96;52.14
75697;BME280;64312;44.738;20.612;2022-10-17T10:02:08;101892.47;;;17.06;53.00
75697;BME280;64312;44.738;20.612;2022-10-17T10:04:34;101883.16;;;17.16;53.27
75697;BME280;64312;44.738;20.612;2022-10-17T10:07:04;101887.84;;;17.28;53.51
75697;BME280;64312;44.738;20.612;2022-10-17T10:09:32;101882.88;;;17.39;52.89
75697;BME280;64312;44.738;20.612;2022-10-17T10:12:02;101872.91;;;17.46;52.49
75697;BME280;64312;44.738;20.612;2022-10-17T10:16:54;101890.81;;;17.62;53.19
75697;BME280;64312;44.738;20.612;2022-10-17T10:19:30;101875.97;;;17.71;52.92
75697;BME280;64312;44.738;20.612;2022-10-17T10:21:58;101867.84;;;17.77;52.89
75697;BME280;64312;44.738;20.612;2022-10-17T10:24:24;101870.81;;;17.82;52.30
75697;BME280;64312;44.738;20.612;2022-10-17T10:26:51;101868.78;;;17.91;51.98
75697;BME280;64312;44.738;20.612;2022-10-17T10:32:29;101868.66;;;18.12;49.37
75697;BME280;64312;44.738;20.612;2022-10-17T10:37:52;101865.97;;;18.19;51.25
75697;BME280;64312;44.738;20.612;2022-10-17T10:45:54;101863.72;;;18.36;49.78
75697;BME280;64312;44.738;20.612;2022-10-17T10:48:25;101867.47;;;18.41;51.32
75697;BME280;64312;44.738;20.612;2022-10-17T10:50:59;101849.44;;;18.40;49.68
75697;BME280;64312;44.738;20.612;2022-10-17T10:56:17;101847.16;;;18.51;49.87
75697;BME280;64312;44.738;20.612;2022-10-17T11:04:00;101851.84;;;18.70;47.49
75697;BME280;64312;44.738;20.612;2022-10-17T11:06:29;101851.22;;;18.81;49.24
75697;BME280;64312;44.738;20.612;2022-10-17T11:09:12;101846.84;;;18.93;50.16
75697;BME280;64312;44.738;20.612;2022-10-17T11:11:52;101840.09;;;19.03;47.40
75697;BME280;64312;44.738;20.612;2022-10-17T11:22:48;101839.03;;;19.24;49.71
75697;BME280;64312;44.738;20.612;2022-10-17T11:25:37;101831.25;;;19.27;47.02
75697;BME280;64312;44.738;20.612;2022-10-17T11:28:11;101826.41;;;19.29;47.24
75697;BME280;64312;44.738;20.612;2022-10-17T11:30:59;101824.13;;;19.33;45.93
75697;BME280;64312;44.738;20.612;2022-10-17T11:33:30;101825.13;;;19.38;45.31
75697;BME280;64312;44.738;20.612;2022-10-17T11:36:03;101823.66;;;19.42;46.30
75697;BME280;64312;44.738;20.612;2022-10-17T11:41:42;101807.69;;;19.53;45.06
75697;BME280;64312;44.738;20.612;2022-10-17T11:46:51;101814.59;;;19.62;44.35
75697;BME280;64312;44.738;20.612;2022-10-17T11:49:21;101804.28;;;19.64;45.12
75697;BME280;64312;44.738;20.612;2022-10-17T11:51:58;101806.38;;;19.68;44.10
75697;BME280;64312;44.738;20.612;2022-10-17T11:54:44;101809.09;;;19.75;45.89
75697;BME280;64312;44.738;20.612;2022-10-17T12:00:24;101803.38;;;19.83;44.05
75697;BME280;64312;44.738;20.612;2022-10-17T12:17:04;101788.56;;;20.04;42.22
75697;BME280;64312;44.738;20.612;2022-10-17T12:19:33;101791.25;;;20.11;41.24
75697;BME280;64312;44.738;20.612;2022-10-17T12:22:11;101793.50;;;20.20;42.53
75697;BME280;64312;44.738;20.612;2022-10-17T12:29:48;101787.94;;;20.34;43.49
75697;BME280;64312;44.738;20.612;2022-10-17T12:32:15;101784.34;;;20.40;42.65
75697;BME280;64312;44.738;20.612;2022-10-17T12:34:54;101788.53;;;20.42;43.56
75697;BME280;64312;44.738;20.612;2022-10-17T12:45:57;101783.44;;;20.52;40.27
75697;BME280;64312;44.738;20.612;2022-10-17T12:54:09;101779.97;;;20.64;41.38
75697;BME280;64312;44.738;20.612;2022-10-17T12:56:40;101773.22;;;20.66;40.80
75697;BME280;64312;44.738;20.612;2022-10-17T12:59:24;101776.34;;;20.70;39.59
75697;BME280;64312;44.738;20.612;2022-10-17T13:01:55;101762.44;;;20.71;40.99
75697;BME280;64312;44.738;20.612;2022-10-17T13:04:22;101766.41;;;20.75;40.96
75697;BME280;64312;44.738;20.612;2022-10-17T13:06:52;101768.09;;;20.76;41.39
75697;BME280;64312;44.738;20.612;2022-10-17T13:11:51;101762.38;;;20.78;40.18
75697;BME280;64312;44.738;20.612;2022-10-17T13:14:19;101766.59;;;20.80;44.93
75697;BME280;64312;44.738;20.612;2022-10-17T13:19:24;101767.00;;;20.77;42.24
75697;BME280;64312;44.738;20.612;2022-10-17T13:21:55;101765.56;;;20.75;40.97
75697;BME280;64312;44.738;20.612;2022-10-17T13:24:34;101760.94;;;20.75;40.25
75697;BME280;64312;44.738;20.612;2022-10-17T13:27:01;101758.19;;;20.75;40.47
75697;BME280;64312;44.738;20.612;2022-10-17T13:29:29;101760.94;;;20.75;39.74
75697;BME280;64312;44.738;20.612;2022-10-17T13:32:01;101755.84;;;20.79;39.97
75697;BME280;64312;44.738;20.612;2022-10-17T13:34:29;101754.78;;;20.80;40.01
75697;BME280;64312;44.738;20.612;2022-10-17T13:37:00;101760.25;;;20.80;39.31
75697;BME280;64312;44.738;20.612;2022-10-17T13:39:35;101751.44;;;20.78;39.30
75697;BME280;64312;44.738;20.612;2022-10-17T13:42:03;101753.94;;;20.79;39.58
75697;BME280;64312;44.738;20.612;2022-10-17T13:44:32;101760.03;;;20.81;39.89
75697;BME280;64312;44.738;20.612;2022-10-17T13:46:58;101757.75;;;20.78;40.01
75697;BME280;64312;44.738;20.612;2022-10-17T13:49:34;101749.94;;;20.82;40.08
75697;BME280;64312;44.738;20.612;2022-10-17T13:52:03;101751.00;;;20.81;41.18
75697;BME280;64312;44.738;20.612;2022-10-17T13:54:41;101751.59;;;20.83;40.45
75697;BME280;64312;44.738;20.612;2022-10-17T13:57:35;101752.66;;;20.82;40.49
75697;BME280;64312;44.738;20.612;2022-10-17T14:00:17;101747.19;;;20.82;39.48
75697;BME280;64312;44.738;20.612;2022-10-17T14:02:43;101753.09;;;20.79;40.23
75697;BME280;64312;44.738;20.612;2022-10-17T14:05:15;101753.94;;;20.79;40.44
75697;BME280;64312;44.738;20.612;2022-10-17T14:07:59;101750.38;;;20.79;40.16
75697;BME280;64312;44.738;20.612;2022-10-17T14:10:32;101755.84;;;20.79;40.32
75697;BME280;64312;44.738;20.612;2022-10-17T14:12:59;101744.53;;;20.75;40.62
75697;BME280;64312;44.738;20.612;2022-10-17T14:15:30;101748.31;;;20.74;41.19
75697;BME280;64312;44.738;20.612;2022-10-17T14:18:05;101751.91;;;20.75;41.54
75697;BME280;64312;44.738;20.612;2022-10-17T14:20:31;101756.13;;;20.71;41.17
75697;BME280;64312;44.738;20.612;2022-10-17T14:22:58;101761.59;;;20.71;41.39
75697;BME280;64312;44.738;20.612;2022-10-17T14:25:33;101761.19;;;20.67;42.02
75697;BME280;64312;44.738;20.612;2022-10-17T14:30:44;101753.50;;;20.58;42.69
75697;BME280;64312;44.738;20.612;2022-10-17T14:35:54;101754.41;;;20.51;42.56
75697;BME280;64312;44.738;20.612;2022-10-17T14:38:21;101745.38;;;20.44;42.61
75697;BME280;64312;44.738;20.612;2022-10-17T14:40:49;101741.19;;;20.42;42.72
75697;BME280;64312;44.738;20.612;2022-10-17T14:43:20;101738.06;;;20.38;43.21
75697;BME280;64312;44.738;20.612;2022-10-17T14:45:47;101744.00;;;20.35;43.00
75697;BME280;64312;44.738;20.612;2022-10-17T14:48:16;101739.19;;;20.31;42.81
75697;BME280;64312;44.738;20.612;2022-10-17T14:51:06;101741.13;;;20.23;43.67
75697;BME280;64312;44.738;20.612;2022-10-17T14:53:32;101746.19;;;20.20;43.39
75697;BME280;64312;44.738;20.612;2022-10-17T14:55:59;101737.78;;;20.15;43.59
75697;BME280;64312;44.738;20.612;2022-10-17T14:58:28;101732.19;;;20.10;43.98
75697;BME280;64312;44.738;20.612;2022-10-17T15:00:55;101738.06;;;20.07;43.65
75697;BME280;64312;44.738;20.612;2022-10-17T15:03:22;101738.91;;;20.07;43.26
75697;BME280;64312;44.738;20.612;2022-10-17T15:05:48;101736.13;;;20.14;42.97
75697;BME280;64312;44.738;20.612;2022-10-17T15:08:16;101746.41;;;20.18;43.50
75697;BME280;64312;44.738;20.612;2022-10-17T15:10:43;101734.03;;;20.09;43.46
75697;BME280;64312;44.738;20.612;2022-10-17T15:13:10;101742.50;;;20.01;43.60
75697;BME280;64312;44.738;20.612;2022-10-17T15:15:36;101736.06;;;19.89;43.64